Arivaca, Arizona
Current Conditions -  °F | °C
As of 5:54 PM on Saturday 25 Oct 2014 (Local Time) from KOLS Reporting Station
Clear Clear  
Wind Chill: 25°   Ceiling: Unl
Heat Index: 26°   Visibility: 10mi
Dew Point:   Wind: 3mph
Humidity: 36%   Direction: 210°SSW
Pressure: 30.11"   Gusts: NA
Location:  31.57°N, 111.33°W
Report Text: KOLS 260054Z AUTO 21003KT 10SM CLR 25/09 A3011 RMK AO2 SLP146 T02500089
Loading
Personal Weather Stations






























Interactive Weather Map
Tropical Storm Tracking
New forecast layout! Learn more

10-Day Weather Forecast

Advertisements
Track Severe Weather on mobile